createdAt,value
2018-03-25T00:01:26.675Z,101.80
2018-03-25T00:03:57.708Z,91.40
2018-03-25T00:06:28.651Z,85.70
2018-03-25T00:08:59.642Z,87.80
2018-03-25T00:11:30.590Z,82.82
2018-03-25T00:14:01.545Z,85.25
2018-03-25T00:16:32.492Z,81.82
2018-03-25T00:19:03.501Z,84.70
2018-03-25T00:21:34.426Z,90.25
2018-03-25T00:24:05.590Z,97.37
2018-03-25T00:26:36.915Z,159.50
2018-03-25T00:29:07.671Z,165.68
2018-03-25T00:31:39.206Z,147.28
2018-03-25T00:34:09.733Z,122.45
2018-03-25T00:36:40.719Z,113.40
2018-03-25T00:39:11.739Z,91.45
2018-03-25T00:41:42.686Z,84.40
2018-03-25T00:44:13.751Z,92.15
2018-03-25T00:46:44.647Z,100.07
2018-03-25T00:49:15.797Z,91.03
2018-03-25T00:51:46.687Z,96.80
2018-03-25T00:54:17.730Z,100.18
2018-03-25T00:56:48.774Z,101.20
2018-03-25T00:59:19.854Z,107.57
2018-03-25T01:01:51.119Z,106.25
2018-03-25T01:04:21.756Z,109.78
2018-03-25T01:06:52.778Z,99.47
2018-03-25T01:09:23.437Z,104.20
2018-03-25T01:11:54.326Z,108.16
2018-03-25T01:14:25.063Z,102.68
2018-03-25T01:16:55.674Z,100.72
2018-03-25T01:19:27.199Z,111.12
2018-03-25T01:21:57.059Z,105.72
2018-03-25T01:24:27.733Z,104.50
2018-03-25T01:26:58.678Z,110.53
2018-03-25T01:29:29.683Z,98.28
2018-03-25T01:32:06.118Z,97.24
2018-03-25T01:34:35.699Z,106.78
2018-03-25T01:37:05.102Z,95.90
2018-03-25T01:39:34.358Z,102.70
2018-03-25T01:42:04.458Z,102.16
2018-03-25T01:44:34.778Z,98.70
2018-03-25T01:47:05.775Z,105.30
2018-03-25T01:49:36.615Z,101.80
2018-03-25T01:52:07.290Z,93.94
2018-03-25T01:54:37.778Z,93.37
2018-03-25T01:57:08.758Z,80.45
2018-03-25T01:59:39.580Z,88.75
2018-03-25T02:02:10.572Z,88.97
2018-03-25T02:04:41.521Z,79.90
2018-03-25T02:07:12.587Z,91.18
2018-03-25T02:09:44.188Z,86.78
2018-03-25T02:12:14.952Z,88.15
2018-03-25T02:14:45.631Z,87.00
2018-03-25T02:17:16.272Z,83.88
2018-03-25T02:19:46.936Z,81.46
2018-03-25T02:22:17.746Z,82.70
2018-03-25T02:24:48.675Z,79.32
2018-03-25T02:27:19.686Z,77.32
2018-03-25T02:29:50.654Z,82.75
2018-03-25T02:32:21.614Z,73.47
2018-03-25T02:34:52.794Z,79.00
2018-03-25T02:37:23.802Z,75.28
2018-03-25T02:39:54.959Z,78.45
2018-03-25T02:42:25.743Z,76.45
2018-03-25T02:44:57.507Z,76.70
2018-03-25T02:47:28.190Z,69.42
2018-03-25T02:49:58.710Z,68.93
2018-03-25T02:52:29.311Z,71.60
2018-03-25T02:54:59.707Z,71.97
2018-03-25T02:57:30.601Z,66.05
2018-03-25T03:00:01.606Z,66.72
2018-03-25T03:02:32.745Z,65.07
2018-03-25T03:05:03.667Z,69.40
2018-03-25T03:07:34.667Z,63.50
2018-03-25T03:10:05.068Z,66.98
2018-03-25T03:12:35.763Z,72.43
2018-03-25T03:15:06.759Z,68.65
2018-03-25T03:17:37.667Z,67.47
2018-03-25T03:20:08.262Z,69.86
2018-03-25T03:22:38.788Z,65.10
2018-03-25T03:25:09.727Z,66.85
2018-03-25T03:27:41.067Z,66.70
2018-03-25T03:30:11.700Z,83.87
2018-03-25T03:32:42.715Z,96.18
2018-03-25T03:35:13.915Z,79.45
2018-03-25T03:37:44.737Z,79.87
2018-03-25T03:40:15.679Z,95.05
2018-03-25T03:42:46.680Z,92.78
2018-03-25T03:45:17.657Z,96.03
2018-03-25T03:47:48.673Z,99.82
2018-03-25T03:50:19.850Z,87.70
2018-03-25T03:52:50.392Z,87.24
2018-03-25T03:55:21.022Z,102.00
2018-03-25T03:57:52.348Z,101.32
2018-03-25T04:00:23.373Z,111.78
2018-03-25T04:02:54.080Z,122.28
2018-03-25T04:05:25.248Z,119.57
2018-03-25T04:07:55.835Z,122.00
2018-03-25T04:10:26.723Z,116.12
2018-03-25T04:12:57.723Z,122.53
2018-03-25T04:15:28.475Z,117.70
2018-03-25T04:17:59.951Z,117.87
2018-03-25T04:20:30.668Z,126.55
2018-03-25T04:23:01.743Z,124.28
2018-03-25T04:25:32.297Z,117.16
2018-03-25T04:28:03.317Z,123.28
2018-03-25T04:30:33.779Z,125.68
2018-03-25T04:33:04.706Z,123.00
2018-03-25T04:35:35.674Z,128.82
2018-03-25T04:38:06.705Z,123.90
2018-03-25T04:40:37.646Z,132.32
2018-03-25T04:43:08.684Z,124.30
2018-03-25T04:45:39.650Z,133.90
2018-03-25T04:48:10.647Z,125.07
2018-03-25T04:50:41.597Z,138.43
2018-03-25T04:53:12.610Z,129.18
2018-03-25T04:55:42.919Z,128.93
2018-03-25T04:58:13.805Z,133.23
2018-03-25T05:00:44.602Z,132.02
2018-03-25T05:03:15.610Z,142.52
2018-03-25T05:05:46.548Z,144.32
2018-03-25T05:08:17.235Z,157.14
2018-03-25T05:10:47.617Z,143.45
2018-03-25T05:13:18.653Z,144.52
2018-03-25T05:15:49.262Z,158.40
2018-03-25T05:18:19.778Z,156.35
2018-03-25T05:20:50.575Z,160.35
2018-03-25T05:23:21.240Z,170.24
2018-03-25T05:25:51.743Z,156.27
2018-03-25T05:28:22.706Z,149.23
2018-03-25T05:30:53.617Z,149.23
2018-03-25T05:33:24.643Z,158.43
2018-03-25T05:35:55.751Z,145.85
2018-03-25T05:38:26.766Z,153.00
2018-03-25T05:40:57.658Z,155.55
2018-03-25T05:43:28.676Z,154.48
2018-03-25T05:45:59.615Z,154.02
2018-03-25T05:48:30.719Z,155.20
2018-03-25T05:51:01.582Z,153.60
2018-03-25T05:53:32.595Z,159.15
2018-03-25T05:56:03.580Z,153.40
2018-03-25T05:58:34.558Z,174.00
2018-03-25T06:01:05.175Z,181.18
2018-03-25T06:03:35.860Z,181.63
2018-03-25T06:06:06.284Z,185.40
2018-03-25T06:08:37.678Z,182.15
2018-03-25T06:11:08.341Z,145.02
2018-03-25T06:13:38.851Z,134.90
2018-03-25T06:16:09.713Z,132.93
2018-03-25T06:18:40.732Z,133.65
2018-03-25T06:21:11.720Z,134.93
2018-03-25T06:23:42.687Z,132.85
2018-03-25T06:26:13.248Z,122.04
2018-03-25T06:28:43.778Z,120.60
2018-03-25T06:31:15.240Z,118.30
2018-03-25T06:33:45.762Z,121.53
2018-03-25T06:36:16.732Z,124.03
2018-03-25T06:38:47.761Z,137.73
2018-03-25T06:41:18.379Z,149.72
2018-03-25T06:43:49.098Z,125.62
2018-03-25T06:46:19.706Z,93.03
2018-03-25T06:48:50.708Z,114.12
2018-03-25T06:51:21.660Z,67.55
2018-03-25T06:53:52.693Z,54.88
2018-03-25T06:56:23.890Z,43.50
2018-03-25T06:58:54.765Z,43.40
2018-03-25T07:01:25.549Z,54.42
2018-03-25T07:03:56.554Z,46.40
2018-03-25T07:06:27.512Z,43.72
2018-03-25T07:08:58.483Z,46.83
2018-03-25T07:11:29.394Z,50.65
2018-03-25T07:14:00.423Z,51.97
2018-03-25T07:16:31.382Z,54.33
2018-03-25T07:19:02.057Z,49.62
2018-03-25T07:21:32.790Z,43.00
2018-03-25T07:24:03.639Z,39.55
2018-03-25T07:26:34.595Z,40.30
2018-03-25T07:29:06.237Z,36.90
2018-03-25T07:31:37.011Z,35.17
2018-03-25T07:34:07.733Z,32.88
2018-03-25T07:36:38.667Z,32.20
2018-03-25T07:39:09.640Z,41.47
2018-03-25T07:41:40.577Z,35.83
2018-03-25T07:44:11.601Z,38.03
2018-03-25T07:46:42.532Z,33.38
2018-03-25T07:49:13.520Z,33.22
2018-03-25T07:51:44.465Z,33.05
2018-03-25T07:54:15.452Z,31.37
2018-03-25T07:56:46.427Z,27.30
2018-03-25T07:59:17.472Z,28.30
2018-03-25T08:01:47.784Z,26.40
2018-03-25T08:04:18.723Z,25.80
2018-03-25T08:06:49.708Z,25.42
2018-03-25T08:09:20.730Z,25.08
2018-03-25T08:11:51.691Z,25.45
2018-03-25T08:14:22.370Z,24.28
2018-03-25T08:16:53.011Z,26.98
2018-03-25T08:19:23.776Z,26.83
2018-03-25T08:21:54.840Z,26.35
2018-03-25T08:24:25.815Z,29.37
2018-03-25T08:26:56.340Z,26.06
2018-03-25T08:29:27.086Z,29.18
2018-03-25T08:31:57.661Z,32.74
2018-03-25T08:34:28.302Z,34.18
2018-03-25T08:36:58.995Z,27.30
2018-03-25T08:39:29.768Z,34.25
2018-03-25T08:42:02.263Z,25.68
2018-03-25T08:44:32.377Z,26.37
2018-03-25T08:47:02.020Z,30.58
2018-03-25T08:49:32.721Z,31.08
2018-03-25T08:52:03.704Z,26.92
2018-03-25T08:54:34.375Z,28.10
2018-03-25T08:57:04.992Z,24.06
2018-03-25T08:59:35.820Z,27.37
2018-03-25T09:02:06.373Z,23.50
2018-03-25T09:04:37.868Z,27.50
2018-03-25T09:07:08.467Z,23.66
2018-03-25T09:09:39.235Z,24.30
2018-03-25T09:12:09.475Z,23.02
2018-03-25T09:14:41.377Z,23.98
2018-03-25T09:17:12.021Z,21.74
2018-03-25T09:19:42.805Z,20.92
2018-03-25T09:22:13.517Z,20.98
2018-03-25T09:24:44.256Z,21.08
2018-03-25T09:27:14.758Z,21.37
2018-03-25T09:29:45.374Z,21.30
2018-03-25T09:32:16.125Z,22.36
2018-03-25T09:34:46.206Z,19.75
2018-03-25T09:37:16.734Z,21.65
2018-03-25T09:39:47.751Z,38.08
2018-03-25T09:42:18.358Z,25.88
2018-03-25T09:44:49.116Z,21.46
2018-03-25T09:47:19.665Z,16.98
2018-03-25T09:49:50.302Z,16.68
2018-03-25T09:52:21.019Z,21.26
2018-03-25T09:54:51.797Z,19.50
2018-03-25T09:57:23.444Z,16.40
2018-03-25T09:59:54.132Z,17.58
2018-03-25T10:02:27.850Z,17.90
2018-03-25T10:04:57.154Z,21.37
2018-03-25T10:07:27.028Z,24.45
2018-03-25T10:09:57.754Z,22.60
2018-03-25T10:12:28.729Z,20.48
2018-03-25T10:15:00.795Z,24.05
2018-03-25T10:17:31.304Z,19.90
2018-03-25T10:20:02.008Z,23.45
2018-03-25T10:22:32.716Z,20.27
2018-03-25T10:25:03.382Z,19.52
2018-03-25T10:27:34.012Z,21.86
2018-03-25T10:30:04.525Z,20.70
2018-03-25T10:32:35.492Z,20.50
2018-03-25T10:35:06.556Z,20.25
2018-03-25T10:37:37.534Z,21.17
2018-03-25T10:40:08.174Z,19.62
2018-03-25T10:42:38.748Z,19.40
2018-03-25T10:45:13.875Z,19.77
2018-03-25T10:47:43.078Z,15.98
2018-03-25T10:50:12.355Z,18.27
2018-03-25T10:52:42.961Z,18.28
2018-03-25T10:55:13.341Z,17.22
2018-03-25T10:57:43.844Z,22.10
2018-03-25T11:00:14.307Z,17.46
2018-03-25T11:02:44.988Z,17.18
2018-03-25T11:05:15.836Z,17.48
2018-03-25T11:07:46.699Z,20.10
2018-03-25T11:10:17.705Z,22.67
2018-03-25T11:12:48.711Z,19.42
2018-03-25T11:15:19.773Z,21.77
2018-03-25T11:17:50.756Z,21.92
2018-03-25T11:20:21.800Z,21.45
2018-03-25T11:22:52.656Z,19.25
2018-03-25T11:25:23.692Z,22.50
2018-03-25T11:27:54.669Z,21.48
2018-03-25T11:30:25.805Z,20.20
2018-03-25T11:32:56.690Z,20.02
2018-03-25T11:35:27.696Z,18.55
2018-03-25T11:37:58.697Z,19.23
2018-03-25T11:40:29.747Z,20.70
2018-03-25T11:43:00.652Z,19.25
2018-03-25T11:45:31.689Z,20.48
2018-03-25T11:48:02.618Z,20.36
2018-03-25T11:50:33.350Z,20.10
2018-03-25T11:53:03.763Z,21.15
2018-03-25T11:55:35.160Z,18.50
2018-03-25T11:58:05.773Z,21.23
2018-03-25T12:00:36.395Z,20.40
2018-03-25T12:03:07.140Z,18.38
2018-03-25T12:05:37.824Z,21.77
2018-03-25T12:08:08.389Z,20.30
2018-03-25T12:10:39.221Z,19.60
2018-03-25T12:13:09.754Z,17.75
2018-03-25T12:15:40.471Z,21.74
2018-03-25T12:18:11.415Z,19.04
2018-03-25T12:20:42.133Z,19.38
2018-03-25T12:23:12.713Z,36.42
2018-03-25T12:25:43.406Z,34.46
2018-03-25T12:28:14.033Z,28.92
2018-03-25T12:30:44.805Z,28.95
2018-03-25T12:33:16.241Z,22.50
2018-03-25T12:35:46.143Z,24.10
2018-03-25T12:38:16.747Z,25.02
2018-03-25T12:40:47.864Z,24.00
2018-03-25T12:43:18.889Z,22.48
2018-03-25T12:45:49.696Z,19.98
2018-03-25T12:48:22.052Z,21.55
2018-03-25T12:50:52.184Z,22.60
2018-03-25T12:53:22.032Z,20.58
2018-03-25T12:55:52.791Z,20.02
2018-03-25T12:58:23.736Z,20.50
2018-03-25T13:00:54.794Z,24.00
2018-03-25T13:03:25.798Z,20.98
2018-03-25T13:05:56.732Z,19.50
2018-03-25T13:08:27.683Z,21.30
2018-03-25T13:10:59.353Z,16.78
2018-03-25T13:13:29.953Z,17.70
2018-03-25T13:16:00.734Z,19.85
2018-03-25T13:18:31.962Z,23.20
2018-03-25T13:21:02.732Z,17.50
2018-03-25T13:23:33.367Z,18.46
2018-03-25T13:26:04.125Z,17.54
2018-03-25T13:28:34.733Z,19.80
2018-03-25T13:31:05.805Z,18.85
2018-03-25T13:33:36.669Z,18.60
2018-03-25T13:36:07.721Z,20.67
2018-03-25T13:38:38.329Z,15.40
2018-03-25T13:41:09.087Z,17.64
2018-03-25T13:43:39.763Z,15.95
2018-03-25T13:46:10.756Z,16.58
2018-03-25T13:48:42.155Z,22.42
2018-03-25T13:51:12.771Z,21.55
2018-03-25T13:53:43.710Z,17.00
2018-03-25T13:56:14.701Z,14.23
2018-03-25T13:58:45.666Z,17.00
2018-03-25T14:01:16.711Z,16.55
2018-03-25T14:03:47.787Z,16.23
2018-03-25T14:06:18.840Z,20.85
2018-03-25T14:08:49.376Z,20.72
2018-03-25T14:11:20.064Z,16.56
2018-03-25T14:13:50.773Z,16.65
2018-03-25T14:16:21.731Z,14.98
2018-03-25T14:18:52.749Z,18.08
2018-03-25T14:21:23.690Z,18.62
2018-03-25T14:23:54.692Z,22.75
2018-03-25T14:26:25.724Z,18.10
2018-03-25T14:28:56.722Z,15.25
2018-03-25T14:31:27.492Z,14.82
2018-03-25T14:33:58.350Z,13.38
2018-03-25T14:36:29.036Z,16.12
2018-03-25T14:38:59.753Z,17.35
2018-03-25T14:41:30.454Z,14.92
2018-03-25T14:44:01.071Z,16.96
2018-03-25T14:46:31.904Z,16.23
2018-03-25T14:49:02.684Z,18.73
2018-03-25T14:51:36.185Z,17.10
2018-03-25T14:54:04.912Z,15.25
2018-03-25T14:56:35.325Z,16.52
2018-03-25T14:59:05.913Z,18.14
2018-03-25T15:01:36.681Z,17.30
2018-03-25T15:04:07.960Z,19.35
2018-03-25T15:06:38.709Z,18.83
2018-03-25T15:09:09.791Z,17.58
2018-03-25T15:11:40.242Z,17.78
2018-03-25T15:14:10.768Z,19.27
2018-03-25T15:16:41.750Z,17.75
2018-03-25T15:19:12.772Z,19.23
2018-03-25T15:21:43.647Z,17.73
2018-03-25T15:24:14.683Z,16.83
2018-03-25T15:26:45.644Z,17.33
2018-03-25T15:29:16.682Z,16.98
2018-03-25T15:31:47.470Z,17.27
2018-03-25T15:34:18.194Z,16.84
2018-03-25T15:36:48.759Z,16.98
2018-03-25T15:39:19.706Z,16.85
2018-03-25T15:41:51.183Z,16.62
2018-03-25T15:44:21.844Z,20.85
2018-03-25T15:46:52.702Z,22.90
2018-03-25T15:49:23.718Z,21.42
2018-03-25T15:51:54.713Z,17.62
2018-03-25T15:54:25.841Z,15.30
2018-03-25T15:56:56.640Z,15.50
2018-03-25T15:59:27.663Z,17.65
2018-03-25T16:01:58.631Z,16.05
2018-03-25T16:04:30.025Z,18.37
2018-03-25T16:07:00.739Z,18.37
2018-03-25T16:09:31.785Z,19.15
2018-03-25T16:12:02.732Z,18.48
2018-03-25T16:14:33.782Z,18.98
2018-03-25T16:17:04.838Z,18.08
2018-03-25T16:19:35.685Z,18.25
2018-03-25T16:22:06.783Z,23.40
2018-03-25T16:24:38.756Z,18.85
2018-03-25T16:27:08.354Z,21.60
2018-03-25T16:29:39.110Z,25.34
2018-03-25T16:32:09.787Z,34.60
2018-03-25T16:34:40.867Z,493.06
2018-03-25T16:37:11.333Z,132.40
2018-03-25T16:39:41.152Z,140.88
2018-03-25T16:42:11.755Z,48.03
2018-03-25T16:44:42.835Z,65.22
2018-03-25T16:47:13.697Z,26.52
2018-03-25T16:49:44.808Z,27.73
2018-03-25T16:52:15.791Z,69.30
2018-03-25T16:54:48.490Z,80.43
2018-03-25T16:57:18.471Z,43.97
2018-03-25T16:59:49.198Z,46.66
2018-03-25T17:02:19.663Z,47.72
2018-03-25T17:04:50.977Z,71.03
2018-03-25T17:07:21.735Z,33.42
2018-03-25T17:09:52.750Z,27.42
2018-03-25T17:12:23.737Z,25.58
2018-03-25T17:14:54.789Z,24.30
2018-03-25T17:17:25.777Z,26.80
2018-03-25T17:19:56.843Z,22.02
2018-03-25T17:22:27.704Z,24.45
2018-03-25T17:24:58.805Z,23.98
2018-03-25T17:27:29.752Z,27.08
2018-03-25T17:30:01.416Z,25.40
2018-03-25T17:32:31.089Z,25.73
2018-03-25T17:35:01.132Z,25.27
2018-03-25T17:37:31.757Z,26.70
2018-03-25T17:40:02.823Z,51.35
2018-03-25T17:42:33.871Z,86.68
2018-03-25T17:45:04.350Z,60.38
2018-03-25T17:47:35.049Z,23.66
2018-03-25T17:50:05.922Z,24.27
2018-03-25T17:52:36.756Z,22.48
2018-03-25T17:55:07.898Z,22.80
2018-03-25T17:57:38.704Z,24.17
2018-03-25T18:00:09.837Z,25.27
2018-03-25T18:02:40.697Z,183.40
2018-03-25T18:05:11.844Z,168.80
2018-03-25T18:07:42.691Z,119.55
2018-03-25T18:10:13.866Z,47.42
2018-03-25T18:12:45.021Z,29.40
2018-03-25T18:15:15.882Z,32.70
2018-03-25T18:17:46.731Z,30.92
2018-03-25T18:20:17.728Z,30.05
2018-03-25T18:22:48.733Z,29.35
2018-03-25T18:25:20.566Z,27.38
2018-03-25T18:27:50.213Z,30.10
2018-03-25T18:30:20.839Z,29.30
2018-03-25T18:32:51.755Z,28.70
2018-03-25T18:35:22.401Z,33.84
2018-03-25T18:37:53.046Z,30.76
2018-03-25T18:40:23.907Z,31.95
2018-03-25T18:42:54.316Z,29.96
2018-03-25T18:45:24.916Z,29.15
2018-03-25T18:47:55.762Z,30.20
2018-03-25T18:50:26.819Z,31.25
2018-03-25T18:52:58.684Z,30.23
2018-03-25T18:55:28.666Z,31.30
2018-03-25T18:57:59.488Z,28.88
2018-03-25T19:00:30.350Z,33.62
2018-03-25T19:03:01.953Z,53.14
2018-03-25T19:05:32.484Z,33.60
2018-03-25T19:08:03.515Z,41.34
2018-03-25T19:10:34.450Z,37.42
2018-03-25T19:13:05.175Z,34.68
2018-03-25T19:15:35.162Z,35.05
2018-03-25T19:18:05.813Z,30.20
2018-03-25T19:20:36.882Z,31.80
2018-03-25T19:23:07.801Z,36.58
2018-03-25T19:25:38.890Z,42.53
2018-03-25T19:28:13.904Z,35.38
2018-03-25T19:30:43.253Z,40.67
2018-03-25T19:33:12.844Z,42.13
2018-03-25T19:35:42.433Z,59.08
2018-03-25T19:38:13.267Z,78.46
2018-03-25T19:40:43.833Z,61.65
2018-03-25T19:43:14.764Z,49.78
2018-03-25T19:45:45.758Z,66.10
2018-03-25T19:48:16.820Z,55.25
2018-03-25T19:50:47.820Z,89.30
2018-03-25T19:53:18.820Z,45.45
2018-03-25T19:55:49.833Z,33.25
2018-03-25T19:58:20.816Z,63.40
2018-03-25T20:00:51.391Z,45.18
2018-03-25T20:03:22.048Z,34.26
2018-03-25T20:05:52.850Z,42.78
2018-03-25T20:08:23.344Z,33.80
2018-03-25T20:10:53.976Z,36.16
2018-03-25T20:13:24.765Z,38.00
2018-03-25T20:15:55.844Z,30.24
2018-03-25T20:18:26.328Z,36.22
2018-03-25T20:20:56.455Z,36.53
2018-03-25T20:23:27.655Z,32.70
2018-03-25T20:25:58.744Z,69.57
2018-03-25T20:28:29.784Z,121.65
2018-03-25T20:31:00.658Z,138.65
2018-03-25T20:33:31.802Z,38.00
2018-03-25T20:36:02.702Z,33.03
2018-03-25T20:38:33.764Z,32.10
2018-03-25T20:41:04.664Z,35.97
2018-03-25T20:43:35.989Z,34.58
2018-03-25T20:46:06.707Z,34.97
2018-03-25T20:48:37.737Z,34.67
2018-03-25T20:51:08.343Z,36.76
2018-03-25T20:53:39.031Z,38.30
2018-03-25T20:56:09.606Z,34.00
2018-03-25T20:58:40.634Z,35.70
2018-03-25T21:01:12.087Z,35.00
2018-03-25T21:03:42.818Z,35.30
2018-03-25T21:06:13.762Z,33.08
2018-03-25T21:08:44.832Z,35.63
2018-03-25T21:11:15.644Z,36.35
2018-03-25T21:13:46.334Z,35.32
2018-03-25T21:16:17.075Z,35.84
2018-03-25T21:18:47.747Z,39.45
2018-03-25T21:21:18.694Z,36.90
2018-03-25T21:23:49.778Z,36.58
2018-03-25T21:26:20.320Z,37.34
2018-03-25T21:28:50.965Z,34.98
2018-03-25T21:31:21.927Z,36.58
2018-03-25T21:33:52.688Z,36.35
2018-03-25T21:36:23.797Z,36.20
2018-03-25T21:38:54.783Z,37.40
2018-03-25T21:41:25.596Z,31.87
2018-03-25T21:43:56.565Z,33.78
2018-03-25T21:46:27.480Z,33.47
2018-03-25T21:48:58.543Z,35.17
2018-03-25T21:51:29.522Z,33.75
2018-03-25T21:54:02.017Z,31.40
2018-03-25T21:56:31.986Z,33.15
2018-03-25T21:59:02.871Z,33.42
2018-03-25T22:01:33.747Z,34.05
2018-03-25T22:04:04.851Z,33.20
2018-03-25T22:06:35.692Z,32.90
2018-03-25T22:09:06.175Z,32.55
2018-03-25T22:11:37.691Z,32.84
2018-03-25T22:14:08.705Z,32.67
2018-03-25T22:16:39.647Z,32.88
2018-03-25T22:19:10.653Z,33.47
2018-03-25T22:21:41.304Z,34.30
2018-03-25T22:24:11.879Z,31.95
2018-03-25T22:26:42.666Z,35.95
2018-03-25T22:29:13.687Z,32.63
2018-03-25T22:31:44.648Z,32.72
2018-03-25T22:34:15.640Z,32.28
2018-03-25T22:36:46.663Z,33.38
2018-03-25T22:39:17.786Z,37.92
2018-03-25T22:41:48.800Z,33.92
2018-03-25T22:44:19.690Z,31.12
2018-03-25T22:46:50.611Z,35.25
2018-03-25T22:49:21.574Z,30.10
2018-03-25T22:51:52.517Z,35.22
2018-03-25T22:54:23.671Z,33.92
2018-03-25T22:56:54.618Z,35.30
2018-03-25T22:59:25.751Z,34.40
2018-03-25T23:01:56.915Z,34.30
2018-03-25T23:04:27.739Z,34.33
2018-03-25T23:06:58.614Z,33.00
2018-03-25T23:09:29.400Z,36.03
2018-03-25T23:12:00.333Z,36.13
2018-03-25T23:14:31.406Z,34.78
2018-03-25T23:17:04.936Z,36.73
2018-03-25T23:19:34.971Z,33.92
2018-03-25T23:22:04.239Z,36.40
2018-03-25T23:24:34.938Z,36.58
2018-03-25T23:27:05.322Z,36.02
2018-03-25T23:29:36.099Z,35.50
2018-03-25T23:32:12.034Z,34.30
2018-03-25T23:34:41.275Z,34.87
2018-03-25T23:37:10.670Z,33.62
2018-03-25T23:39:40.310Z,36.47
2018-03-25T23:42:10.892Z,36.70
2018-03-25T23:44:41.759Z,34.38
2018-03-25T23:47:12.763Z,35.47
2018-03-25T23:49:43.575Z,34.75
2018-03-25T23:52:15.004Z,39.18
2018-03-25T23:54:45.802Z,38.60
2018-03-25T23:57:16.800Z,39.67
2018-03-25T23:59:47.718Z,34.42
